createdAt,value
2018-03-01T07:11:17.476Z,315
2018-03-01T07:12:16.691Z,315
2018-03-01T07:13:16.930Z,325
2018-03-01T07:14:16.662Z,335
2018-03-01T07:15:16.897Z,340
2018-03-01T07:16:16.610Z,345
2018-03-01T07:17:16.074Z,355
2018-03-01T07:18:16.310Z,365
2018-03-01T07:19:16.563Z,375
2018-03-01T07:20:16.529Z,385
2018-03-01T07:21:16.517Z,380
2018-03-01T07:22:16.765Z,395
2018-03-01T07:23:16.801Z,380
2018-03-01T07:24:16.478Z,345
2018-03-01T07:25:16.460Z,320
2018-03-01T07:26:16.692Z,305
2018-03-01T07:27:16.678Z,300
2018-03-01T07:28:16.658Z,325
2018-03-01T07:29:16.633Z,335
2018-03-01T07:30:16.625Z,335
2018-03-01T07:31:16.636Z,335
2018-03-01T07:32:16.611Z,340
2018-03-01T07:33:16.330Z,345
2018-03-01T07:34:16.308Z,355
2018-03-01T07:35:16.567Z,360
2018-03-01T07:36:16.543Z,365
2018-03-01T07:37:16.002Z,380
2018-03-01T07:38:16.496Z,380
2018-03-01T07:39:16.490Z,375
2018-03-01T07:40:16.201Z,385
2018-03-01T07:41:16.435Z,390
2018-03-01T07:42:16.744Z,405
2018-03-01T07:43:16.178Z,405
2018-03-01T07:44:16.401Z,415
2018-03-01T07:45:16.396Z,405
2018-03-01T07:46:16.105Z,395
2018-03-01T07:47:15.844Z,400
2018-03-01T07:48:15.820Z,410
2018-03-01T07:49:16.335Z,415
2018-03-01T07:50:16.045Z,425
2018-03-01T07:51:16.380Z,445
2018-03-01T07:52:16.305Z,455
2018-03-01T07:53:16.265Z,470
2018-03-01T07:54:16.254Z,470
2018-03-01T07:55:15.974Z,470
2018-03-01T07:56:16.013Z,480
2018-03-01T07:57:16.053Z,480
2018-03-01T07:58:15.933Z,450
2018-03-01T07:59:16.162Z,320
2018-03-01T08:00:16.183Z,205
2018-03-01T08:01:16.135Z,200
2018-03-01T08:02:15.866Z,200
2018-03-01T08:03:16.116Z,200
2018-03-01T08:04:16.090Z,200
2018-03-01T08:05:15.788Z,200
2018-03-01T08:06:16.038Z,200
2018-03-01T08:07:16.026Z,200
2018-03-01T08:08:15.740Z,200
2018-03-01T08:09:15.996Z,205
2018-03-01T08:10:15.962Z,195
2018-03-01T08:11:16.048Z,200
2018-03-01T08:12:15.945Z,200
2018-03-01T08:13:15.942Z,200
2018-03-01T08:14:15.910Z,200
2018-03-01T08:15:15.893Z,200
2018-03-01T08:16:15.881Z,200
2018-03-01T08:17:15.594Z,205
2018-03-01T08:18:15.569Z,200
2018-03-01T08:19:15.810Z,205
2018-03-01T08:20:15.541Z,205
2018-03-01T08:21:15.539Z,205
2018-03-01T08:22:15.487Z,205
2018-03-01T08:23:15.458Z,190
2018-03-01T08:24:15.214Z,190
2018-03-01T08:25:15.510Z,205
2018-03-01T08:26:15.437Z,205
2018-03-01T08:27:15.394Z,205
2018-03-01T08:28:15.397Z,205
2018-03-01T08:29:15.105Z,205
2018-03-01T08:30:15.336Z,200
2018-03-01T08:31:15.614Z,200
2018-03-01T08:32:15.296Z,205
2018-03-01T08:33:15.288Z,205
2018-03-01T08:34:14.757Z,205
2018-03-01T08:35:15.296Z,205
2018-03-01T08:36:15.550Z,205
2018-03-01T08:37:14.950Z,205
2018-03-01T08:38:15.209Z,205
2018-03-01T08:39:15.417Z,205
2018-03-01T08:40:15.152Z,210
2018-03-01T08:41:15.399Z,210
2018-03-01T08:42:14.857Z,205
2018-03-01T08:43:15.088Z,210
2018-03-01T08:44:15.367Z,205
2018-03-01T08:45:15.061Z,210
2018-03-01T08:46:15.288Z,210
2018-03-01T08:47:15.021Z,210
2018-03-01T08:48:14.998Z,205
2018-03-01T08:49:14.713Z,205
2018-03-01T08:50:14.693Z,205
2018-03-01T08:51:14.928Z,205
2018-03-01T08:52:14.902Z,205
2018-03-01T08:53:14.902Z,210
2018-03-01T08:54:15.125Z,210
2018-03-01T08:55:15.114Z,215
2018-03-01T08:56:15.104Z,215
2018-03-01T08:57:15.087Z,215
2018-03-01T08:58:15.061Z,215
2018-03-01T08:59:15.039Z,215
2018-03-01T09:00:15.072Z,210
2018-03-01T09:01:15.033Z,210
2018-03-01T09:02:14.779Z,210
2018-03-01T09:03:14.984Z,215
2018-03-01T09:04:14.702Z,210
2018-03-01T09:05:14.939Z,215
2018-03-01T09:06:14.662Z,210
2018-03-01T09:07:14.639Z,210
2018-03-01T09:08:14.879Z,210
2018-03-01T09:09:14.855Z,205
2018-03-01T09:10:14.829Z,210
2018-03-01T09:11:14.831Z,215
2018-03-01T09:12:14.550Z,210
2018-03-01T09:13:14.781Z,210
2018-03-01T09:14:14.504Z,205
2018-03-01T09:15:14.742Z,210
2018-03-01T09:16:14.724Z,215
2018-03-01T09:17:14.700Z,215
2018-03-01T09:18:14.425Z,215
2018-03-01T09:19:14.416Z,215
2018-03-01T09:20:14.399Z,215
2018-03-01T09:21:14.621Z,215
2018-03-01T09:22:14.638Z,215
2018-03-01T09:23:14.337Z,215
2018-03-01T09:24:14.583Z,215
2018-03-01T09:25:14.287Z,215
2018-03-01T09:26:14.514Z,215
2018-03-01T09:27:14.251Z,210
2018-03-01T09:28:13.721Z,205
2018-03-01T09:29:14.264Z,205
2018-03-01T09:30:13.933Z,205
2018-03-01T09:31:14.214Z,210
2018-03-01T09:32:14.429Z,210
2018-03-01T09:33:14.399Z,210
2018-03-01T09:34:13.884Z,210
2018-03-01T09:35:13.893Z,215
2018-03-01T09:36:14.084Z,205
2018-03-01T09:37:14.368Z,210
2018-03-01T09:38:14.042Z,205
2018-03-01T09:39:14.295Z,205
2018-03-01T09:40:14.015Z,200
2018-03-01T09:41:14.242Z,210
2018-03-01T09:42:14.224Z,210
2018-03-01T09:43:14.234Z,210
2018-03-01T09:44:13.947Z,215
2018-03-01T09:45:13.417Z,215
2018-03-01T09:46:14.164Z,215
2018-03-01T09:47:14.134Z,215
2018-03-01T09:48:14.125Z,210
2018-03-01T09:49:32.990Z,210
2018-03-01T09:50:14.033Z,210
2018-03-01T09:51:14.015Z,210
2018-03-01T09:52:13.733Z,210
2018-03-01T09:53:13.711Z,205
2018-03-01T09:54:13.696Z,205
2018-03-01T09:55:13.935Z,205
2018-03-01T09:56:13.403Z,200
2018-03-01T09:57:13.907Z,200
2018-03-01T09:58:13.900Z,200
2018-03-01T09:59:13.608Z,200
2018-03-01T10:00:13.331Z,200
2018-03-01T10:01:13.333Z,195
2018-03-01T10:02:13.596Z,195
2018-03-01T10:03:13.288Z,195
2018-03-01T10:04:13.516Z,195
2018-03-01T10:05:13.307Z,190
2018-03-01T10:06:13.226Z,185
2018-03-01T10:07:13.939Z,190
2018-03-01T10:08:13.708Z,190
2018-03-01T10:09:13.679Z,195
2018-03-01T10:10:13.409Z,200
2018-03-01T10:11:13.378Z,195
2018-03-01T10:12:13.633Z,200
2018-03-01T10:13:13.372Z,200
2018-03-01T10:14:13.581Z,200
2018-03-01T10:15:13.312Z,200
2018-03-01T10:16:12.783Z,200
2018-03-01T10:17:13.016Z,200
2018-03-01T10:18:13.578Z,205
2018-03-01T10:19:13.492Z,205
2018-03-01T10:20:13.213Z,210
2018-03-01T10:21:13.467Z,210
2018-03-01T10:22:12.671Z,215
2018-03-01T10:23:13.161Z,215
2018-03-01T10:24:12.924Z,215
2018-03-01T10:25:13.123Z,215
2018-03-01T10:26:13.374Z,210
2018-03-01T10:27:13.086Z,210
2018-03-01T10:28:12.563Z,205
2018-03-01T10:29:12.812Z,205
2018-03-01T10:30:13.034Z,205
2018-03-01T10:31:12.766Z,205
2018-03-01T10:32:13.011Z,205
2018-03-01T10:33:12.984Z,205
2018-03-01T10:34:12.988Z,205
2018-03-01T10:35:13.219Z,205
2018-03-01T10:36:12.955Z,205
2018-03-01T10:37:12.960Z,205
2018-03-01T10:38:13.154Z,205
2018-03-01T10:39:12.879Z,205
2018-03-01T10:40:12.860Z,205
2018-03-01T10:41:12.841Z,200
2018-03-01T10:42:12.856Z,200
2018-03-01T10:43:13.054Z,195
2018-03-01T10:44:12.782Z,195
2018-03-01T10:45:12.775Z,195
2018-03-01T10:46:13.001Z,190
2018-03-01T10:47:12.214Z,190
2018-03-01T10:48:12.716Z,190
2018-03-01T10:49:12.694Z,190
2018-03-01T10:50:12.923Z,195
2018-03-01T10:51:12.956Z,190
2018-03-01T10:52:12.903Z,190
2018-03-01T10:53:12.876Z,185
2018-03-01T10:54:12.863Z,185
2018-03-01T10:55:12.601Z,185
2018-03-01T10:56:12.563Z,185
2018-03-01T10:57:12.806Z,185
2018-03-01T10:58:12.525Z,185
2018-03-01T10:59:12.520Z,185
2018-03-01T11:00:12.762Z,185
2018-03-01T11:01:12.492Z,185
2018-03-01T11:02:12.708Z,185
2018-03-01T11:03:12.712Z,185
2018-03-01T11:04:12.683Z,185
2018-03-01T11:05:11.890Z,185
2018-03-01T11:06:12.384Z,185
2018-03-01T11:07:12.109Z,185
2018-03-01T11:08:12.345Z,185
2018-03-01T11:09:12.590Z,185
2018-03-01T11:10:12.312Z,185
2018-03-01T11:11:12.308Z,185
2018-03-01T11:12:12.529Z,185
2018-03-01T11:13:12.506Z,185
2018-03-01T11:14:12.485Z,185
2018-03-01T11:15:12.242Z,185
2018-03-01T11:16:12.204Z,185
2018-03-01T11:17:12.547Z,185
2018-03-01T11:18:12.421Z,185
2018-03-01T11:19:12.401Z,185
2018-03-01T11:20:11.874Z,185
2018-03-01T11:21:12.394Z,185
2018-03-01T11:22:11.967Z,185
2018-03-01T11:23:12.321Z,185
2018-03-01T11:24:12.083Z,185
2018-03-01T11:25:11.787Z,185
2018-03-01T11:26:12.286Z,185
2018-03-01T11:27:12.264Z,185
2018-03-01T11:28:11.976Z,180
2018-03-01T11:29:12.330Z,180
2018-03-01T11:30:11.940Z,180
2018-03-01T11:31:11.924Z,180
2018-03-01T11:32:11.927Z,180
2018-03-01T11:33:11.886Z,180
2018-03-01T11:34:12.135Z,180
2018-03-01T11:35:11.905Z,180
2018-03-01T11:36:11.842Z,180
2018-03-01T11:37:12.079Z,180
2018-03-01T11:38:12.065Z,180
2018-03-01T11:39:12.034Z,180
2018-03-01T11:40:11.761Z,180
2018-03-01T11:41:11.774Z,180
2018-03-01T11:42:11.730Z,180
2018-03-01T11:43:11.976Z,180
2018-03-01T11:44:11.981Z,180
2018-03-01T11:45:11.936Z,180
2018-03-01T11:46:11.412Z,180
2018-03-01T11:47:11.886Z,180
2018-03-01T11:48:11.898Z,180
2018-03-01T11:49:11.989Z,180
2018-03-01T11:50:11.847Z,180
2018-03-01T11:51:11.565Z,180
2018-03-01T11:52:11.801Z,175
2018-03-01T11:53:11.786Z,175
2018-03-01T11:54:11.508Z,175
2018-03-01T11:55:11.488Z,175
2018-03-01T11:56:11.245Z,175
2018-03-01T11:57:11.450Z,175
2018-03-01T11:58:11.444Z,175
2018-03-01T11:59:11.434Z,175
2018-03-01T12:00:11.149Z,175
2018-03-01T12:01:11.128Z,175
2018-03-01T12:02:11.620Z,175
2018-03-01T12:03:11.609Z,175
2018-03-01T12:04:11.389Z,175
2018-03-01T12:05:11.573Z,175
2018-03-01T12:06:11.617Z,175
2018-03-01T12:07:11.538Z,175
2018-03-01T12:08:11.522Z,175
2018-03-01T12:09:11.511Z,175
2018-03-01T12:10:11.227Z,175
2018-03-01T12:11:11.230Z,175
2018-03-01T12:12:11.448Z,175
2018-03-01T12:13:11.441Z,175
2018-03-01T12:14:11.408Z,175
2018-03-01T12:15:11.144Z,175
2018-03-01T12:16:11.119Z,175
2018-03-01T12:17:11.105Z,175
2018-03-01T12:18:11.382Z,175
2018-03-01T12:19:11.330Z,175
2018-03-01T12:20:11.307Z,170
2018-03-01T12:21:11.042Z,170
2018-03-01T12:22:11.429Z,170
2018-03-01T12:23:11.006Z,170
2018-03-01T12:24:10.724Z,170
2018-03-01T12:25:10.444Z,170
2018-03-01T12:26:10.932Z,170
2018-03-01T12:27:10.918Z,170
2018-03-01T12:28:11.208Z,170
2018-03-01T12:29:10.882Z,170
2018-03-01T12:30:10.603Z,170
2018-03-01T12:31:10.332Z,170
2018-03-01T12:32:10.853Z,170
2018-03-01T12:33:10.810Z,170
2018-03-01T12:34:10.797Z,170
2018-03-01T12:35:10.538Z,170
2018-03-01T12:36:10.762Z,170
2018-03-01T12:37:10.485Z,170
2018-03-01T12:38:10.744Z,170
2018-03-01T12:39:10.965Z,170
2018-03-01T12:40:10.966Z,170
2018-03-01T12:41:10.448Z,170
2018-03-01T12:42:10.650Z,170
2018-03-01T12:43:10.891Z,170
2018-03-01T12:44:10.630Z,170
2018-03-01T12:45:10.611Z,170
2018-03-01T12:46:10.528Z,170
2018-03-01T12:47:10.622Z,165
2018-03-01T12:48:09.777Z,165
2018-03-01T12:49:10.527Z,165
2018-03-01T12:50:10.599Z,165
2018-03-01T12:51:10.234Z,165
2018-03-01T12:52:10.265Z,165
2018-03-01T12:53:10.212Z,165
2018-03-01T12:54:10.736Z,165
2018-03-01T12:55:10.686Z,165
2018-03-01T12:56:10.418Z,165
2018-03-01T12:57:10.663Z,165
2018-03-01T12:58:10.111Z,165
2018-03-01T12:59:10.400Z,165
2018-03-01T13:00:10.348Z,165
2018-03-01T13:01:10.315Z,165
2018-03-01T13:02:10.047Z,165
2018-03-01T13:03:10.028Z,165
2018-03-01T13:04:10.516Z,165
2018-03-01T13:05:10.282Z,165
2018-03-01T13:06:10.229Z,165
2018-03-01T13:07:10.211Z,165
2018-03-01T13:08:10.206Z,165
2018-03-01T13:09:10.441Z,165
2018-03-01T13:10:09.923Z,165
2018-03-01T13:11:10.150Z,165
2018-03-01T13:12:10.133Z,165
2018-03-01T13:13:10.380Z,165
2018-03-01T13:14:10.088Z,165
2018-03-01T13:15:10.431Z,165
2018-03-01T13:16:10.322Z,165
2018-03-01T13:17:09.527Z,165
2018-03-01T13:18:09.758Z,160
2018-03-01T13:19:10.343Z,160
2018-03-01T13:20:09.480Z,160
2018-03-01T13:21:09.970Z,160
2018-03-01T13:22:10.199Z,160
2018-03-01T13:23:10.209Z,160
2018-03-01T13:24:09.916Z,160
2018-03-01T13:25:09.645Z,160
2018-03-01T13:26:09.884Z,160
2018-03-01T13:27:10.123Z,160
2018-03-01T13:28:10.101Z,160
2018-03-01T13:29:09.576Z,160
2018-03-01T13:30:09.565Z,160
2018-03-01T13:31:09.802Z,160
2018-03-01T13:32:10.029Z,160
2018-03-01T13:33:10.010Z,160
2018-03-01T13:34:10.000Z,160
2018-03-01T13:35:09.970Z,160
2018-03-01T13:36:09.455Z,160
2018-03-01T13:37:10.008Z,160
2018-03-01T13:38:09.988Z,160
2018-03-01T13:39:09.982Z,160
2018-03-01T13:40:09.710Z,160
2018-03-01T13:41:09.884Z,160
2018-03-01T13:42:09.365Z,160
2018-03-01T13:43:09.842Z,160
2018-03-01T13:44:09.817Z,160
2018-03-01T13:45:09.802Z,160
2018-03-01T13:46:09.528Z,160
2018-03-01T13:47:09.773Z,160
2018-03-01T13:48:08.993Z,160
2018-03-01T13:49:09.482Z,160
2018-03-01T13:50:09.718Z,160
2018-03-01T13:51:09.454Z,155
2018-03-01T13:52:09.710Z,155
2018-03-01T13:53:09.683Z,155
2018-03-01T13:54:09.406Z,155
2018-03-01T13:55:09.374Z,155
2018-03-01T13:56:09.403Z,155
2018-03-01T13:57:09.359Z,155
2018-03-01T13:58:09.322Z,155
2018-03-01T13:59:09.603Z,155
2018-03-01T14:00:09.554Z,155
2018-03-01T14:01:09.568Z,155
2018-03-01T14:02:08.998Z,155
2018-03-01T14:03:09.503Z,155
2018-03-01T14:04:09.494Z,155
2018-03-01T14:05:09.473Z,155
2018-03-01T14:06:09.484Z,155
2018-03-01T14:07:09.165Z,150
2018-03-01T14:08:09.404Z,150
2018-03-01T14:09:09.387Z,150
2018-03-01T14:10:09.378Z,150
2018-03-01T14:11:08.844Z,150
2018-03-01T14:12:09.339Z,150
2018-03-01T14:13:09.063Z,150
2018-03-01T14:14:09.089Z,150
2018-03-01T14:15:09.341Z,150
2018-03-01T14:16:09.027Z,150
2018-03-01T14:17:09.250Z,150
2018-03-01T14:18:08.981Z,150
2018-03-01T14:19:08.958Z,150
2018-03-01T14:20:08.943Z,145
2018-03-01T14:21:08.943Z,145
2018-03-01T14:22:08.785Z,145
2018-03-01T14:23:09.369Z,145
2018-03-01T14:24:08.649Z,145
2018-03-01T14:25:08.853Z,145
2018-03-01T14:26:09.087Z,145
2018-03-01T14:27:08.841Z,145
2018-03-01T14:28:08.550Z,145
2018-03-01T14:29:08.783Z,145
2018-03-01T14:30:08.768Z,145
2018-03-01T14:31:08.499Z,145
2018-03-01T14:32:09.021Z,145
2018-03-01T14:33:08.750Z,140
2018-03-01T14:34:08.697Z,140
2018-03-01T14:35:09.051Z,140
2018-03-01T14:36:08.737Z,140
2018-03-01T14:37:08.755Z,140
2018-03-01T14:38:08.883Z,140
2018-03-01T14:39:08.614Z,140
2018-03-01T14:40:08.595Z,140
2018-03-01T14:41:08.318Z,140
2018-03-01T14:42:08.776Z,140
2018-03-01T14:43:08.548Z,140
2018-03-01T14:44:08.576Z,140
2018-03-01T14:45:08.775Z,135
2018-03-01T14:46:08.493Z,135
2018-03-01T14:47:08.744Z,135
2018-03-01T14:48:08.477Z,135
2018-03-01T14:49:08.721Z,135
2018-03-01T14:50:08.679Z,135
2018-03-01T14:51:08.666Z,135
2018-03-01T14:52:08.649Z,135
2018-03-01T14:53:08.624Z,135
2018-03-01T14:54:08.605Z,130
2018-03-01T14:55:08.600Z,130
2018-03-01T14:56:08.312Z,130
2018-03-01T14:57:08.566Z,130
2018-03-01T14:58:08.536Z,130
2018-03-01T14:59:08.538Z,130
2018-03-01T15:00:08.249Z,130
2018-03-01T15:01:08.234Z,130
2018-03-01T15:02:08.205Z,125
2018-03-01T15:03:08.460Z,125
2018-03-01T15:04:08.198Z,125
2018-03-01T15:05:08.174Z,125
2018-03-01T15:06:08.138Z,125
2018-03-01T15:07:07.870Z,125
2018-03-01T15:08:08.362Z,125
2018-03-01T15:09:08.092Z,125
2018-03-01T15:10:08.343Z,120
2018-03-01T15:11:07.787Z,120
2018-03-01T15:12:07.776Z,120
2018-03-01T15:13:08.296Z,120
2018-03-01T15:14:07.748Z,120
2018-03-01T15:15:08.252Z,120
2018-03-01T15:16:07.956Z,115
2018-03-01T15:17:08.228Z,115
2018-03-01T15:18:07.938Z,115
2018-03-01T15:19:07.912Z,115
2018-03-01T15:20:07.633Z,115
2018-03-01T15:21:08.146Z,115
2018-03-01T15:22:07.612Z,115
2018-03-01T15:23:07.848Z,110
2018-03-01T15:24:07.822Z,110
2018-03-01T15:25:07.803Z,110
2018-03-01T15:26:08.039Z,110
2018-03-01T15:27:07.767Z,110
2018-03-01T15:28:07.989Z,105
2018-03-01T15:29:07.486Z,105
2018-03-01T15:30:07.454Z,105
2018-03-01T15:31:07.439Z,105
2018-03-01T15:32:07.677Z,105
2018-03-01T15:33:07.682Z,100
2018-03-01T15:34:07.643Z,100
2018-03-01T15:35:07.626Z,100
2018-03-01T15:36:07.346Z,100
2018-03-01T15:37:07.846Z,100
2018-03-01T15:38:07.629Z,95
2018-03-01T15:39:07.561Z,95
2018-03-01T15:40:07.545Z,95
2018-03-01T15:41:07.778Z,95
2018-03-01T15:42:07.523Z,90
2018-03-01T15:43:07.484Z,90
2018-03-01T15:44:07.472Z,90
2018-03-01T15:45:07.208Z,90
2018-03-01T15:46:07.434Z,90
2018-03-01T15:47:07.405Z,85
2018-03-01T15:48:07.471Z,85
2018-03-01T15:49:07.379Z,85
2018-03-01T15:50:07.624Z,85
2018-03-01T15:51:07.372Z,80
2018-03-01T15:52:07.599Z,80
2018-03-01T15:53:07.047Z,80
2018-03-01T15:54:07.031Z,80
2018-03-01T15:55:07.272Z,75
2018-03-01T15:56:06.991Z,75
2018-03-01T15:57:07.252Z,75
2018-03-01T15:58:07.464Z,75
2018-03-01T15:59:07.451Z,70
2018-03-01T16:00:07.239Z,70
2018-03-01T16:01:07.177Z,70
2018-03-01T16:02:07.152Z,65
2018-03-01T16:03:06.874Z,65
2018-03-01T16:04:07.104Z,65
2018-03-01T16:05:07.354Z,65
2018-03-01T16:06:06.823Z,60
2018-03-01T16:07:07.311Z,60
2018-03-01T16:08:07.302Z,60
2018-03-01T16:09:07.320Z,55
2018-03-01T16:10:07.003Z,55
2018-03-01T16:11:06.799Z,55
2018-03-01T16:12:06.966Z,50
2018-03-01T16:13:07.208Z,50
2018-03-01T16:14:06.941Z,50
2018-03-01T16:15:07.185Z,50
2018-03-01T16:16:06.897Z,45
2018-03-01T16:17:06.884Z,45
2018-03-01T16:18:07.132Z,45
2018-03-01T16:19:06.910Z,40
2018-03-01T16:20:07.080Z,40
2018-03-01T16:21:07.067Z,40
2018-03-01T16:22:07.052Z,35
2018-03-01T16:23:07.031Z,35
2018-03-01T16:24:06.493Z,35
2018-03-01T16:25:06.469Z,35
2018-03-01T16:26:06.967Z,30
2018-03-01T16:27:06.709Z,30
2018-03-01T16:28:06.948Z,30
2018-03-01T16:29:06.657Z,25
2018-03-01T16:30:05.875Z,25
2018-03-01T16:31:06.623Z,25
2018-03-01T16:32:07.168Z,25
2018-03-01T16:33:06.577Z,20
2018-03-01T16:34:06.322Z,20
2018-03-01T16:35:06.294Z,20
2018-03-01T16:36:06.800Z,20
2018-03-01T16:37:06.506Z,15
2018-03-01T16:38:06.489Z,15
2018-03-01T16:39:06.478Z,15
2018-03-01T16:40:06.471Z,15
2018-03-01T16:41:06.440Z,10
2018-03-01T16:42:06.692Z,10
2018-03-01T16:43:06.408Z,10
2018-03-01T16:44:06.437Z,10
2018-03-01T16:45:06.619Z,10
2018-03-01T16:46:06.605Z,5
2018-03-01T16:47:06.086Z,5
2018-03-01T16:48:06.591Z,5
2018-03-01T16:49:06.288Z,5
2018-03-01T16:50:06.313Z,5
2018-03-01T16:51:06.562Z,5
2018-03-01T16:52:06.504Z,5
2018-03-01T16:53:06.468Z,0
2018-03-01T16:54:06.455Z,0
2018-03-01T16:55:06.186Z,0
2018-03-01T16:56:06.413Z,0
2018-03-01T16:57:06.150Z,0
2018-03-01T16:58:06.399Z,0
2018-03-01T16:59:06.107Z,0
2018-03-01T17:00:05.572Z,0
2018-03-01T17:01:06.095Z,0
2018-03-01T17:02:06.316Z,0
2018-03-01T17:03:06.300Z,0
2018-03-01T17:04:06.007Z,0
2018-03-01T17:05:06.266Z,0
2018-03-01T17:06:05.974Z,0
2018-03-01T17:07:06.213Z,0
2018-03-01T17:08:06.191Z,0
2018-03-01T17:09:05.944Z,0
2018-03-01T17:10:06.295Z,0
2018-03-01T17:11:06.134Z,0
2018-03-01T17:12:06.125Z,0
2018-03-01T17:13:06.124Z,0
2018-03-01T17:14:05.567Z,0
2018-03-01T17:15:05.543Z,0
2018-03-01T17:16:05.784Z,0
2018-03-01T17:17:06.034Z,0
2018-03-01T17:18:05.772Z,0
2018-03-01T17:19:05.995Z,0
2018-03-01T17:20:05.994Z,0
2018-03-01T17:21:05.696Z,0
2018-03-01T17:22:05.925Z,0
2018-03-01T17:23:05.914Z,0
2018-03-01T17:24:05.906Z,0
2018-03-01T17:25:05.897Z,0
2018-03-01T17:26:05.603Z,0
2018-03-01T17:27:06.004Z,0
2018-03-01T17:28:05.553Z,0
2018-03-01T17:29:05.800Z,0
2018-03-01T17:30:05.522Z,0
2018-03-01T17:31:05.255Z,0
2018-03-01T17:32:05.748Z,0
2018-03-01T17:33:05.459Z,0
2018-03-01T17:34:05.736Z,0
2018-03-01T17:35:05.507Z,0
2018-03-01T17:36:05.676Z,0
2018-03-01T17:37:05.135Z,0
2018-03-01T17:38:05.366Z,0
2018-03-01T17:39:05.606Z,0
2018-03-01T17:40:05.070Z,0
2018-03-01T17:41:05.057Z,0
2018-03-01T17:42:05.552Z,0
2018-03-01T17:43:05.270Z,0
2018-03-01T17:44:05.558Z,0
2018-03-01T17:45:05.239Z,0
2018-03-01T17:46:05.499Z,0
2018-03-01T17:47:05.446Z,0
2018-03-01T17:48:05.436Z,0
2018-03-01T17:49:05.448Z,0
2018-03-01T17:50:04.888Z,0
2018-03-01T17:51:05.425Z,0
2018-03-01T17:52:05.363Z,0
2018-03-01T17:53:05.334Z,0
2018-03-01T17:54:04.811Z,0
2018-03-01T17:55:05.042Z,0
2018-03-01T17:56:04.792Z,0
2018-03-01T17:57:05.002Z,0
2018-03-01T17:58:05.245Z,0
2018-03-01T17:59:05.244Z,0
2018-03-01T18:00:05.252Z,0
2018-03-01T18:01:04.988Z,0
2018-03-01T18:02:05.179Z,0
2018-03-01T18:03:04.894Z,0
2018-03-01T18:04:05.122Z,0
2018-03-01T18:05:04.845Z,0
2018-03-01T18:06:04.830Z,0
2018-03-01T18:07:05.088Z,0
2018-03-01T18:08:04.800Z,0
2018-03-01T18:09:04.778Z,0
2018-03-01T18:10:04.754Z,0
2018-03-01T18:11:04.741Z,0
2018-03-01T18:12:04.973Z,0
2018-03-01T18:13:04.957Z,0
2018-03-01T18:14:04.959Z,0
2018-03-01T18:15:04.660Z,0
2018-03-01T18:16:04.890Z,0
2018-03-01T18:17:04.883Z,0
2018-03-01T18:18:04.611Z,0
2018-03-01T18:19:04.579Z,0
2018-03-01T18:20:04.823Z,0
2018-03-01T18:21:04.636Z,0
2018-03-01T18:22:04.773Z,0
2018-03-01T18:23:04.251Z,0
2018-03-01T18:24:04.480Z,0
2018-03-01T18:25:04.723Z,0
2018-03-01T18:26:04.443Z,0
2018-03-01T18:27:04.697Z,0
2018-03-01T18:28:04.405Z,0
2018-03-01T18:29:04.643Z,0
2018-03-01T18:30:04.620Z,0
2018-03-01T18:31:04.345Z,0
2018-03-01T18:32:04.585Z,0
2018-03-01T18:33:04.356Z,0
2018-03-01T18:34:04.039Z,0
2018-03-01T18:35:04.262Z,0
2018-03-01T18:36:04.513Z,0
2018-03-01T18:37:04.481Z,0
2018-03-01T18:38:04.212Z,0
2018-03-01T18:39:04.455Z,0
2018-03-01T18:40:04.182Z,0
2018-03-01T18:41:04.407Z,0
2018-03-01T18:42:04.397Z,0
2018-03-01T18:43:04.398Z,0
2018-03-01T18:44:04.346Z,0
2018-03-01T18:45:03.569Z,0
2018-03-01T18:46:04.057Z,0
2018-03-01T18:47:04.037Z,0
2018-03-01T18:48:04.281Z,0
2018-03-01T18:49:04.278Z,0
2018-03-01T18:50:04.229Z,0
2018-03-01T18:51:03.959Z,0
2018-03-01T18:52:04.205Z,0
2018-03-01T18:53:03.926Z,0
2018-03-01T18:54:04.150Z,0
2018-03-01T18:55:04.136Z,0
2018-03-01T18:56:04.122Z,0
2018-03-01T18:57:04.125Z,0
2018-03-01T18:58:04.086Z,0
2018-03-01T18:59:04.054Z,0
2018-03-01T19:00:03.851Z,0
2018-03-01T19:01:03.758Z,0
2018-03-01T19:02:03.994Z,0
2018-03-01T19:03:03.986Z,0
2018-03-01T19:04:03.704Z,0
2018-03-01T19:05:03.691Z,0
2018-03-01T19:06:03.922Z,0
2018-03-01T19:07:03.648Z,0
2018-03-01T19:08:03.873Z,0
2018-03-01T19:09:03.860Z,0
2018-03-01T19:10:03.586Z,0
2018-03-01T19:11:03.564Z,0
2018-03-01T19:12:03.797Z,0
2018-03-01T19:13:03.528Z,0
2018-03-01T19:14:03.499Z,0
2018-03-01T19:15:03.759Z,0
2018-03-01T19:16:03.740Z,0
2018-03-01T19:17:03.446Z,0
2018-03-01T19:18:03.472Z,0
2018-03-01T19:19:03.725Z,0
2018-03-01T19:20:02.877Z,0
2018-03-01T19:21:03.383Z,0
2018-03-01T19:22:03.604Z,0
2018-03-01T19:23:03.583Z,0
2018-03-01T19:24:03.622Z,0
2018-03-01T19:25:03.286Z,0
2018-03-01T19:26:03.534Z,0
2018-03-01T19:27:02.989Z,0
2018-03-01T19:28:03.508Z,0
2018-03-01T19:29:03.210Z,0
2018-03-01T19:30:03.445Z,0
2018-03-01T19:31:03.426Z,0
2018-03-01T19:32:03.155Z,0
2018-03-01T19:33:03.382Z,0
2018-03-01T19:34:03.099Z,0
2018-03-01T19:35:03.338Z,0
2018-03-01T19:36:03.071Z,0
2018-03-01T19:37:03.304Z,0
2018-03-01T19:38:03.361Z,0
2018-03-01T19:39:03.287Z,0
2018-03-01T19:40:03.243Z,0
2018-03-01T19:41:03.220Z,0
2018-03-01T19:42:02.469Z,0
2018-03-01T19:43:03.246Z,0
2018-03-01T19:44:03.173Z,0
2018-03-01T19:45:02.633Z,0
2018-03-01T19:46:03.142Z,0
2018-03-01T19:47:02.884Z,0
2018-03-01T19:48:02.820Z,0
2018-03-01T19:49:03.058Z,0
2018-03-01T19:50:02.788Z,0
2018-03-01T19:51:02.519Z,0
2018-03-01T19:52:02.232Z,0
2018-03-01T19:53:02.986Z,0
2018-03-01T19:54:02.709Z,0
2018-03-01T19:55:02.939Z,0
2018-03-01T19:56:02.917Z,0
2018-03-01T19:57:02.385Z,0
2018-03-01T19:58:02.377Z,0
2018-03-01T19:59:02.640Z,0
2018-03-01T20:00:02.589Z,0
2018-03-01T20:01:02.858Z,0
2018-03-01T20:02:02.284Z,0
2018-03-01T20:03:02.529Z,0
2018-03-01T20:04:02.756Z,0
2018-03-01T20:05:02.774Z,0
2018-03-01T20:06:02.209Z,0
2018-03-01T20:07:02.720Z,0
2018-03-01T20:08:02.681Z,0
2018-03-01T20:09:02.143Z,0
2018-03-01T20:10:02.389Z,0
2018-03-01T20:11:02.657Z,0
2018-03-01T20:12:02.085Z,0
2018-03-01T20:13:02.574Z,0
2018-03-01T20:14:02.558Z,0
2018-03-01T20:15:02.583Z,0
2018-03-01T20:16:01.755Z,0
2018-03-01T20:17:02.500Z,0
2018-03-01T20:18:02.493Z,0
2018-03-01T20:19:02.467Z,0
2018-03-01T20:20:02.446Z,0
2018-03-01T20:21:02.172Z,0
2018-03-01T20:22:02.404Z,0
2018-03-01T20:23:02.382Z,0
2018-03-01T20:24:01.847Z,0
2018-03-01T20:25:02.074Z,0
2018-03-01T20:26:02.061Z,0
2018-03-01T20:27:01.780Z,0
2018-03-01T20:28:02.265Z,0
2018-03-01T20:29:01.998Z,0
2018-03-01T20:30:02.326Z,0
2018-03-01T20:31:01.449Z,0
2018-03-01T20:32:02.195Z,0
2018-03-01T20:33:02.169Z,0
2018-03-01T20:34:01.908Z,0
2018-03-01T20:35:02.136Z,0
2018-03-01T20:36:02.237Z,0
2018-03-01T20:37:01.331Z,0
2018-03-01T20:38:02.069Z,0
2018-03-01T20:39:01.552Z,0
2018-03-01T20:40:01.519Z,0
2018-03-01T20:41:01.766Z,0
2018-03-01T20:42:01.524Z,0
2018-03-01T20:43:01.706Z,0
2018-03-01T20:44:01.439Z,0
2018-03-01T20:45:01.728Z,0
2018-03-01T20:46:01.905Z,0
2018-03-01T20:47:01.891Z,0
2018-03-01T20:48:01.353Z,0
2018-03-01T20:49:01.600Z,0
2018-03-01T20:50:01.568Z,0
2018-03-01T20:51:01.292Z,0
2018-03-01T20:52:01.799Z,0
2018-03-01T20:53:01.773Z,0
2018-03-01T20:54:01.227Z,0
2018-03-01T20:55:01.729Z,0
2018-03-01T20:56:01.448Z,0
2018-03-01T20:57:01.686Z,0
2018-03-01T20:58:01.658Z,0
2018-03-01T20:59:01.383Z,0
2018-03-01T21:00:01.365Z,0
2018-03-01T21:01:01.085Z,0
2018-03-01T21:02:01.577Z,0
2018-03-01T21:03:01.306Z,0
2018-03-01T21:04:01.613Z,0
2018-03-01T21:05:01.523Z,0
2018-03-01T21:06:01.498Z,0
2018-03-01T21:07:01.500Z,0
2018-03-01T21:08:01.235Z,0
2018-03-01T21:09:01.441Z,0
2018-03-01T21:10:01.410Z,0
2018-03-01T21:11:01.397Z,0
2018-03-01T21:12:01.365Z,0
2018-03-01T21:13:01.364Z,0
2018-03-01T21:14:01.076Z,0
2018-03-01T21:15:01.325Z,0
2018-03-01T21:16:01.041Z,0
2018-03-01T21:17:01.259Z,0
2018-03-01T21:18:00.990Z,0